LFLY/LYN METAR and TAF weather

Enter ICAO airport designator
Station Type Date Time Source
LFLY METAR 2022/06/25 23:30 UTC NOAA

LFLY 252330Z AUTO 02006KT 340V050 CAVOK 17/15 Q1014 TEMPO SHRA SCT050TCU


Station Type Date Time Source
LFLY Decoded METAR 2022/06/25 23:30 UTC NOAA

Lyon / Bron, France (LFLY) 45-43N 004-57E 201M
Jun 25, 2022 - 07:30 PM EDT / 2022.06.25 2330 UTC
Wind: from the NNE (020 degrees) at 7 MPH (6 KT) (direction variable):0
Visibility: greater than 7 mile(s):0
Weather: Towering cumulus clouds observed
Temperature: 62 F (17 C)
Dew Point: 59 F (15 C)
Relative Humidity: 88%
Pressure (altimeter): 29.94 in. Hg (1014 hPa)
ob: LFLY 252330Z AUTO 02006KT 340V050 CAVOK 17/15 Q1014 TEMPO SHRA SCT050TCU
cycle: 23

Station Type Date Time Source
LFLY TAF 2022/06/25 18:21 UTC NOAA

TAF LFLY 251700Z 2518/2618 36010KT CAVOK PROB40
TEMPO 2518/2520 32020G40KT 3000 TSRA SCT050CB PROB30
TEMPO 2520/2603 SHRA SCT050TCU PROB40
TEMPO 2603/2608 4000 RA BKN014 FEW060TCU
BECMG 2607/2609 BKN021

Example: see airport list